Time;durP1;ratioP1;P1;durP2;ratioP2;P2;SDS_P1;SDS_P2;PMS_P1;PMS_P2;Temp;Humidity;BMP_temperature;BMP_pressure;BME280_temperature;BME280_humidity;BME280_pressure;Samples;Min_cycle;Max_cycle;Signal;HPM_P1;HPM_P2
2023/07/30 00:00:23;;;;;;;24.58;4.57;;;;;;;;;;5029263;28;20029;-70
2023/07/30 00:02:49;;;;;;;19.30;3.67;;;;;;;;;;5029388;28;20041;-70
2023/07/30 00:05:15;;;;;;;18.52;3.85;;;;;;;;;;5029004;28;20103;-70
2023/07/30 00:07:41;;;;;;;13.85;3.80;;;;;;;;;;5029727;28;20536;-70
2023/07/30 00:10:07;;;;;;;22.13;4.35;;;;;;;;;;5029066;28;20026;-70
2023/07/30 00:12:34;;;;;;;18.38;3.55;;;;;;;;;;5012123;28;20037;-70
2023/07/30 00:15:00;;;;;;;12.30;4.05;;;;;;;;;;5030033;28;20395;-70
2023/07/30 00:17:26;;;;;;;19.95;4.50;;;;;;;;;;5030176;28;20048;-70
2023/07/30 00:19:52;;;;;;;21.23;3.97;;;;;;;;;;5028309;28;20548;-70
2023/07/30 00:22:18;;;;;;;13.18;3.60;;;;;;;;;;5011976;28;20029;-70
2023/07/30 00:24:44;;;;;;;21.58;4.45;;;;;;;;;;5029805;28;20080;-70
2023/07/30 00:27:10;;;;;;;17.83;4.15;;;;;;;;;;5029793;28;20042;-71
2023/07/30 00:29:36;;;;;;;17.83;4.07;;;;;;;;;;5012515;28;20037;-70
2023/07/30 00:32:02;;;;;;;12.55;3.97;;;;;;;;;;5011853;28;20091;-70
2023/07/30 00:34:29;;;;;;;14.75;3.70;;;;;;;;;;5029802;28;20159;-70
2023/07/30 00:36:55;;;;;;;15.40;4.38;;;;;;;;;;5029772;28;20037;-71
2023/07/30 00:39:21;;;;;;;19.58;4.13;;;;;;;;;;5029735;28;20041;-70
2023/07/30 00:41:47;;;;;;;14.63;3.92;;;;;;;;;;4995553;28;20124;-70
2023/07/30 00:44:13;;;;;;;22.25;4.25;;;;;;;;;;5029552;28;20026;-70
2023/07/30 00:46:41;;;;;;;19.73;4.03;;;;;;;;;;5012777;28;20034;-70
2023/07/30 00:49:07;;;;;;;19.13;5.10;;;;;;;;;;5032619;28;20060;-70
2023/07/30 00:51:34;;;;;;;19.75;4.55;;;;;;;;;;5031867;28;20041;-70
2023/07/30 00:54:00;;;;;;;15.40;4.90;;;;;;;;;;5014718;28;20025;-70
2023/07/30 00:56:27;;;;;;;18.15;4.20;;;;;;;;;;4998614;28;20029;-71
2023/07/30 00:58:54;;;;;;;12.95;3.97;;;;;;;;;;5032661;28;20363;-71
2023/07/30 01:01:20;;;;;;;18.30;4.07;;;;;;;;;;5032282;28;20040;-71
2023/07/30 01:03:47;;;;;;;22.23;4.15;;;;;;;;;;5014754;28;20036;-71
2023/07/30 01:06:13;;;;;;;24.52;4.85;;;;;;;;;;5032500;28;20045;-71
2023/07/30 01:08:40;;;;;;;15.75;4.18;;;;;;;;;;5032741;28;20402;-71
2023/07/30 01:11:06;;;;;;;16.85;4.15;;;;;;;;;;5014262;28;20048;-71
2023/07/30 01:13:33;;;;;;;19.15;4.25;;;;;;;;;;5032209;28;20041;-70
2023/07/30 01:16:00;;;;;;;20.05;4.38;;;;;;;;;;5032024;28;20037;-71
2023/07/30 01:18:26;;;;;;;16.58;4.57;;;;;;;;;;5032452;28;20383;-71
2023/07/30 01:20:58;;;;;;;19.45;4.70;;;;;;;;;;5030798;28;20471;-70
2023/07/30 01:23:25;;;;;;;19.35;4.65;;;;;;;;;;5031833;28;20376;-70
2023/07/30 01:25:56;;;;;;;17.90;4.40;;;;;;;;;;5032074;28;20033;-71
2023/07/30 01:28:23;;;;;;;23.67;4.28;;;;;;;;;;5031933;28;20375;-71
2023/07/30 01:30:50;;;;;;;25.20;4.97;;;;;;;;;;5014035;28;20036;-70
2023/07/30 01:33:16;;;;;;;18.23;3.95;;;;;;;;;;5032245;28;20036;-70
2023/07/30 01:35:43;;;;;;;21.55;4.65;;;;;;;;;;5015199;28;20558;-70
2023/07/30 01:38:10;;;;;;;20.15;4.80;;;;;;;;;;5032464;28;20083;-71
2023/07/30 01:40:36;;;;;;;22.75;5.15;;;;;;;;;;5032399;28;20036;-71
2023/07/30 01:43:02;;;;;;;21.23;4.90;;;;;;;;;;4997967;28;20078;-71
2023/07/30 01:45:29;;;;;;;21.48;4.93;;;;;;;;;;5031127;28;20048;-69
2023/07/30 01:47:55;;;;;;;25.85;5.47;;;;;;;;;;5032043;28;20057;-69
2023/07/30 01:50:21;;;;;;;27.48;5.47;;;;;;;;;;5014858;28;20044;-72
2023/07/30 01:52:47;;;;;;;19.55;4.68;;;;;;;;;;5031844;28;20045;-70
2023/07/30 01:55:13;;;;;;;23.60;5.13;;;;;;;;;;5030778;28;20068;-70
2023/07/30 01:57:39;;;;;;;19.98;5.90;;;;;;;;;;4998062;28;20029;-70
2023/07/30 02:00:06;;;;;;;23.50;5.30;;;;;;;;;;5014399;28;20100;-70
2023/07/30 02:02:32;;;;;;;22.50;5.18;;;;;;;;;;5031362;28;20590;-70
2023/07/30 02:04:58;;;;;;;27.98;5.78;;;;;;;;;;5031179;28;20116;-70
2023/07/30 02:07:24;;;;;;;24.65;5.63;;;;;;;;;;5029582;28;20125;-70
2023/07/30 02:09:50;;;;;;;21.58;5.35;;;;;;;;;;5030988;28;20041;-70
2023/07/30 02:12:16;;;;;;;23.77;5.28;;;;;;;;;;5030625;28;20041;-69
2023/07/30 02:14:43;;;;;;;26.60;5.40;;;;;;;;;;5012967;28;20060;-70
2023/07/30 02:17:09;;;;;;;24.58;5.50;;;;;;;;;;5031115;28;20022;-69
2023/07/30 02:19:35;;;;;;;29.65;5.25;;;;;;;;;;5030846;28;20040;-70
2023/07/30 02:22:01;;;;;;;24.40;5.32;;;;;;;;;;5030276;28;20053;-70
2023/07/30 02:24:27;;;;;;;30.58;5.82;;;;;;;;;;5030657;28;20060;-70
2023/07/30 02:26:53;;;;;;;29.70;6.32;;;;;;;;;;5030577;28;20029;-70
2023/07/30 02:29:19;;;;;;;29.83;7.85;;;;;;;;;;5030467;28;20112;-69
2023/07/30 02:31:45;;;;;;;29.40;7.25;;;;;;;;;;5012850;28;20044;-70
2023/07/30 02:34:12;;;;;;;22.75;5.30;;;;;;;;;;5013101;28;20033;-69
2023/07/30 02:36:38;;;;;;;27.63;5.97;;;;;;;;;;5012985;28;20045;-70
2023/07/30 02:39:04;;;;;;;32.55;5.75;;;;;;;;;;5022669;28;20558;-69
2023/07/30 02:41:30;;;;;;;32.42;6.65;;;;;;;;;;5010583;28;20453;-69
2023/07/30 02:43:57;;;;;;;26.83;5.40;;;;;;;;;;5010475;28;20030;-70
2023/07/30 02:46:23;;;;;;;24.15;6.20;;;;;;;;;;5011483;28;20082;-69
2023/07/30 02:48:49;;;;;;;40.63;7.55;;;;;;;;;;5011149;28;20065;-70
2023/07/30 02:51:15;;;;;;;30.13;6.93;;;;;;;;;;5011108;28;20034;-69
2023/07/30 02:53:44;;;;;;;23.10;5.95;;;;;;;;;;5011132;28;20606;-69
2023/07/30 02:56:10;;;;;;;34.25;6.93;;;;;;;;;;5010856;28;20038;-69
2023/07/30 02:58:36;;;;;;;32.35;7.07;;;;;;;;;;5020872;28;20038;-69
2023/07/30 03:01:09;;;;;;;27.48;6.55;;;;;;;;;;5030926;28;20033;-70
2023/07/30 03:03:35;;;;;;;31.35;6.70;;;;;;;;;;5030431;28;20083;-71
2023/07/30 03:06:01;;;;;;;32.33;7.72;;;;;;;;;;5029279;28;20048;-70
2023/07/30 03:08:28;;;;;;;43.65;7.85;;;;;;;;;;5030525;28;20438;-69
2023/07/30 03:10:54;;;;;;;36.55;7.22;;;;;;;;;;5028804;28;20041;-71
2023/07/30 03:13:21;;;;;;;29.52;7.35;;;;;;;;;;5030168;28;20033;-70
2023/07/30 03:15:47;;;;;;;38.80;9.57;;;;;;;;;;5012914;28;20068;-70
2023/07/30 03:18:13;;;;;;;36.08;7.75;;;;;;;;;;5030420;28;20034;-69
2023/07/30 03:20:39;;;;;;;43.65;8.45;;;;;;;;;;5030073;28;20050;-70
2023/07/30 03:23:05;;;;;;;44.63;9.20;;;;;;;;;;5028143;28;20025;-70
2023/07/30 03:25:32;;;;;;;40.25;9.73;;;;;;;;;;5029663;28;20057;-70
2023/07/30 03:27:58;;;;;;;50.05;9.85;;;;;;;;;;4996132;28;20045;-70
2023/07/30 03:30:24;;;;;;;45.58;10.23;;;;;;;;;;5028463;28;20132;-70
2023/07/30 03:32:50;;;;;;;37.58;9.48;;;;;;;;;;5029883;28;20116;-71
2023/07/30 03:35:16;;;;;;;45.92;9.25;;;;;;;;;;5029534;28;20125;-69
2023/07/30 03:37:43;;;;;;;47.53;9.38;;;;;;;;;;5029665;28;20065;-70
2023/07/30 03:40:09;;;;;;;40.78;9.43;;;;;;;;;;5029463;28;20293;-70
2023/07/30 03:42:35;;;;;;;44.47;9.88;;;;;;;;;;5029763;28;20025;-69
2023/07/30 03:45:03;;;;;;;48.92;9.80;;;;;;;;;;5011876;28;20463;-69
2023/07/30 03:47:29;;;;;;;48.17;11.38;;;;;;;;;;5011831;28;20128;-70
2023/07/30 03:49:55;;;;;;;49.47;9.45;;;;;;;;;;5029272;28;20144;-70
2023/07/30 03:52:21;;;;;;;47.15;10.52;;;;;;;;;;5029388;28;20502;-70
2023/07/30 03:54:47;;;;;;;46.97;11.02;;;;;;;;;;5029266;28;20068;-70
2023/07/30 03:57:14;;;;;;;51.83;9.93;;;;;;;;;;5029206;28;20029;-70
2023/07/30 03:59:40;;;;;;;43.70;10.13;;;;;;;;;;5029538;28;20037;-69
2023/07/30 04:02:06;;;;;;;43.80;9.93;;;;;;;;;;5028034;28;20037;-70
2023/07/30 04:04:32;;;;;;;46.33;10.10;;;;;;;;;;5029092;28;20025;-70
2023/07/30 04:06:59;;;;;;;50.05;11.35;;;;;;;;;;5029235;28;20117;-70
2023/07/30 04:09:25;;;;;;;46.10;10.23;;;;;;;;;;5028166;28;20057;-69
2023/07/30 04:11:52;;;;;;;52.30;9.82;;;;;;;;;;5028760;28;20037;-70
2023/07/30 04:14:18;;;;;;;64.50;12.98;;;;;;;;;;5029713;28;20087;-71
2023/07/30 04:16:46;;;;;;;49.53;11.38;;;;;;;;;;5012410;28;20060;-71
2023/07/30 04:19:13;;;;;;;49.10;11.07;;;;;;;;;;5029982;28;20037;-70
2023/07/30 04:21:39;;;;;;;52.10;11.82;;;;;;;;;;5003912;28;20037;-69
2023/07/30 04:24:06;;;;;;;55.92;12.73;;;;;;;;;;5017149;28;20033;-70
2023/07/30 04:26:32;;;;;;;51.50;11.80;;;;;;;;;;5020264;28;20030;-70
2023/07/30 04:28:58;;;;;;;48.38;10.93;;;;;;;;;;4996421;28;20034;-69
2023/07/30 04:31:24;;;;;;;44.95;11.88;;;;;;;;;;4996333;28;20029;-70
2023/07/30 04:33:51;;;;;;;47.88;11.15;;;;;;;;;;4998102;28;20475;-69
2023/07/30 04:36:17;;;;;;;53.03;11.65;;;;;;;;;;5014269;28;20056;-69
2023/07/30 04:38:45;;;;;;;61.17;11.73;;;;;;;;;;5015633;28;20037;-69
2023/07/30 04:41:12;;;;;;;48.67;12.13;;;;;;;;;;5031815;28;20033;-71
2023/07/30 04:43:43;;;;;;;63.47;12.25;;;;;;;;;;5031964;28;20037;-70
2023/07/30 04:46:10;;;;;;;57.25;11.90;;;;;;;;;;5014962;28;20486;-70
2023/07/30 04:48:37;;;;;;;47.05;12.38;;;;;;;;;;5014629;28;20067;-70
2023/07/30 04:51:04;;;;;;;58.40;12.00;;;;;;;;;;5031728;28;20513;-70
2023/07/30 04:53:31;;;;;;;53.88;11.80;;;;;;;;;;5032925;28;20168;-70
2023/07/30 04:55:58;;;;;;;67.03;12.68;;;;;;;;;;5032288;28;20664;-69
2023/07/30 04:58:25;;;;;;;50.25;11.80;;;;;;;;;;5014675;28;20482;-69
2023/07/30 05:00:51;;;;;;;62.03;12.30;;;;;;;;;;5014947;28;20698;-70
2023/07/30 05:03:17;;;;;;;54.45;15.10;;;;;;;;;;5032174;28;20033;-69
2023/07/30 05:05:43;;;;;;;57.67;11.55;;;;;;;;;;5032530;28;20033;-69
2023/07/30 05:08:09;;;;;;;45.88;11.73;;;;;;;;;;5032318;28;20071;-70
2023/07/30 05:10:36;;;;;;;52.83;11.95;;;;;;;;;;5030884;28;20037;-70
2023/07/30 05:13:02;;;;;;;57.85;11.65;;;;;;;;;;5032453;28;20080;-69
2023/07/30 05:15:28;;;;;;;59.15;12.18;;;;;;;;;;5032011;28;20063;-70
2023/07/30 05:17:54;;;;;;;56.05;13.73;;;;;;;;;;4998403;28;20072;-70
2023/07/30 05:20:21;;;;;;;51.13;11.77;;;;;;;;;;5032292;28;20033;-70
2023/07/30 05:22:47;;;;;;;53.55;14.18;;;;;;;;;;5032066;28;20040;-70
2023/07/30 05:25:13;;;;;;;56.65;12.85;;;;;;;;;;5031712;28;20036;-70
2023/07/30 05:27:39;;;;;;;61.28;13.90;;;;;;;;;;5032144;28;20034;-70
2023/07/30 05:30:05;;;;;;;59.03;11.15;;;;;;;;;;5032080;28;20041;-70
2023/07/30 05:32:32;;;;;;;48.90;11.77;;;;;;;;;;5014304;28;20099;-70
2023/07/30 05:34:58;;;;;;;46.42;12.45;;;;;;;;;;5032044;28;20041;-71
2023/07/30 05:37:24;;;;;;;51.67;14.73;;;;;;;;;;5015078;28;20099;-71
2023/07/30 05:39:50;;;;;;;48.63;10.90;;;;;;;;;;5032406;28;20042;-70
2023/07/30 05:42:16;;;;;;;50.40;11.90;;;;;;;;;;5031223;28;20452;-70
2023/07/30 05:44:42;;;;;;;54.15;11.93;;;;;;;;;;5032030;28;20045;-71
2023/07/30 05:47:08;;;;;;;43.72;12.23;;;;;;;;;;5032231;28;20679;-70
2023/07/30 05:49:34;;;;;;;50.65;12.32;;;;;;;;;;5032030;28;20037;-70
2023/07/30 05:52:01;;;;;;;51.40;11.30;;;;;;;;;;5032089;28;20033;-70
2023/07/30 05:54:27;;;;;;;39.45;10.48;;;;;;;;;;5032240;28;20091;-71
2023/07/30 05:56:53;;;;;;;48.00;11.25;;;;;;;;;;5031811;28;20037;-71
2023/07/30 05:59:19;;;;;;;33.78;9.82;;;;;;;;;;5031918;28;20029;-70
2023/07/30 06:01:45;;;;;;;39.13;9.65;;;;;;;;;;5031897;28;20033;-71
2023/07/30 06:04:11;;;;;;;45.58;9.80;;;;;;;;;;5032082;28;20041;-70
2023/07/30 06:06:37;;;;;;;36.10;8.60;;;;;;;;;;5031919;28;20470;-69
2023/07/30 06:09:03;;;;;;;42.10;9.25;;;;;;;;;;5031703;28;20511;-70
2023/07/30 06:11:29;;;;;;;41.25;9.70;;;;;;;;;;5031425;28;20041;-69
2023/07/30 06:13:56;;;;;;;45.28;10.55;;;;;;;;;;5030990;28;20033;-69
2023/07/30 06:16:22;;;;;;;50.88;11.82;;;;;;;;;;5030888;28;20041;-70
2023/07/30 06:18:48;;;;;;;41.25;10.63;;;;;;;;;;5013449;28;20387;-70
2023/07/30 06:21:14;;;;;;;34.05;9.98;;;;;;;;;;5025157;28;20037;-70
2023/07/30 06:23:40;;;;;;;36.33;9.80;;;;;;;;;;5011360;28;20038;-73
2023/07/30 06:26:06;;;;;;;42.55;10.65;;;;;;;;;;5025175;28;20398;-70
2023/07/30 06:28:33;;;;;;;28.23;9.02;;;;;;;;;;5013322;28;20041;-69
2023/07/30 06:31:02;;;;;;;35.90;9.68;;;;;;;;;;5031203;28;20470;-69
2023/07/30 06:33:28;;;;;;;35.33;9.23;;;;;;;;;;5030719;28;20124;-69
2023/07/30 06:35:54;;;;;;;32.28;8.70;;;;;;;;;;5015510;28;20121;-70
2023/07/30 06:38:21;;;;;;;31.05;8.50;;;;;;;;;;5011007;28;20044;-70
2023/07/30 06:40:47;;;;;;;35.38;8.32;;;;;;;;;;5010779;28;20026;-68
2023/07/30 06:43:13;;;;;;;39.88;8.38;;;;;;;;;;4993128;28;20032;-70
2023/07/30 06:45:39;;;;;;;46.90;8.75;;;;;;;;;;5010179;28;20049;-71
2023/07/30 06:48:06;;;;;;;46.47;9.35;;;;;;;;;;5009351;28;20045;-69
2023/07/30 06:50:32;;;;;;;35.40;8.75;;;;;;;;;;5011515;28;20044;-69
2023/07/30 06:52:58;;;;;;;39.08;9.07;;;;;;;;;;5011157;28;20037;-69
2023/07/30 06:55:24;;;;;;;32.05;7.05;;;;;;;;;;5030666;28;20470;-70
2023/07/30 06:57:50;;;;;;;32.80;7.65;;;;;;;;;;5030652;28;20040;-70
2023/07/30 07:00:21;;;;;;;32.83;6.80;;;;;;;;;;5030800;28;20038;-70
2023/07/30 07:02:48;;;;;;;28.23;6.25;;;;;;;;;;5030895;28;20037;-70
2023/07/30 07:05:14;;;;;;;33.47;6.45;;;;;;;;;;5030380;28;20037;-70
2023/07/30 07:07:41;;;;;;;29.27;5.93;;;;;;;;;;5013410;28;20033;-69
2023/07/30 07:10:07;;;;;;;29.10;6.38;;;;;;;;;;5030292;28;20076;-70
2023/07/30 07:12:33;;;;;;;34.00;6.47;;;;;;;;;;5030328;28;20045;-70
2023/07/30 07:15:01;;;;;;;30.98;6.63;;;;;;;;;;5030186;28;20037;-70
2023/07/30 07:17:27;;;;;;;28.25;6.03;;;;;;;;;;5030528;28;20037;-70
2023/07/30 07:19:53;;;;;;;30.85;5.05;;;;;;;;;;5029997;28;20470;-70
2023/07/30 07:22:20;;;;;;;29.00;5.15;;;;;;;;;;5030372;28;20461;-70
2023/07/30 07:24:46;;;;;;;27.25;4.65;;;;;;;;;;5012446;28;20116;-70
2023/07/30 07:27:12;;;;;;;26.13;5.28;;;;;;;;;;5029794;28;20064;-70
2023/07/30 07:29:38;;;;;;;29.08;5.43;;;;;;;;;;5030006;28;20036;-70
2023/07/30 07:32:05;;;;;;;27.27;5.47;;;;;;;;;;5029536;28;20045;-71
2023/07/30 07:34:31;;;;;;;24.08;4.93;;;;;;;;;;5029485;28;20033;-70
2023/07/30 07:36:57;;;;;;;39.63;6.00;;;;;;;;;;5030042;28;20079;-70
2023/07/30 07:39:23;;;;;;;28.25;6.38;;;;;;;;;;5028981;28;20616;-71
2023/07/30 07:41:49;;;;;;;25.40;5.20;;;;;;;;;;5029228;28;20071;-70
2023/07/30 07:44:16;;;;;;;26.92;4.97;;;;;;;;;;5029231;28;20032;-70
2023/07/30 07:46:42;;;;;;;35.00;5.65;;;;;;;;;;5011555;28;20400;-69
2023/07/30 07:49:08;;;;;;;26.13;4.93;;;;;;;;;;5029226;28;20688;-69
2023/07/30 07:51:34;;;;;;;22.48;4.63;;;;;;;;;;5029585;28;20034;-70
2023/07/30 07:54:01;;;;;;;35.97;6.15;;;;;;;;;;5029217;28;20036;-70
2023/07/30 07:56:27;;;;;;;34.45;5.85;;;;;;;;;;5028895;28;20045;-70
2023/07/30 07:58:53;;;;;;;27.52;5.45;;;;;;;;;;5029508;28;20044;-70
2023/07/30 08:01:19;;;;;;;24.95;4.88;;;;;;;;;;5029264;28;20022;-70
2023/07/30 08:03:45;;;;;;;37.70;5.93;;;;;;;;;;5029042;28;20025;-68
2023/07/30 08:06:11;;;;;;;33.65;5.65;;;;;;;;;;5029373;28;20041;-69
2023/07/30 08:08:37;;;;;;;25.17;6.43;;;;;;;;;;5029075;28;20064;-69
2023/07/30 08:11:07;;;;;;;35.95;6.70;;;;;;;;;;5028710;28;20056;-70
2023/07/30 08:13:34;;;;;;;29.40;6.38;;;;;;;;;;5029392;28;20154;-70
2023/07/30 08:16:00;;;;;;;24.73;6.20;;;;;;;;;;5028838;28;20437;-70
2023/07/30 08:18:26;;;;;;;34.75;8.38;;;;;;;;;;5029088;28;20029;-68
2023/07/30 08:20:52;;;;;;;37.33;7.88;;;;;;;;;;5029539;28;20064;-68
2023/07/30 08:23:18;;;;;;;39.53;7.65;;;;;;;;;;5011960;28;20053;-69
2023/07/30 08:25:44;;;;;;;29.05;8.18;;;;;;;;;;5000676;28;20403;-69
2023/07/30 08:28:11;;;;;;;34.67;8.45;;;;;;;;;;5025120;28;20030;-69
2023/07/30 08:30:37;;;;;;;29.90;7.63;;;;;;;;;;5018097;28;20026;-69
2023/07/30 08:33:03;;;;;;;32.13;7.68;;;;;;;;;;4996206;28;20041;-69
2023/07/30 08:35:29;;;;;;;54.25;11.18;;;;;;;;;;5019641;28;20398;-69
2023/07/30 08:37:55;;;;;;;31.92;7.82;;;;;;;;;;5009972;28;20026;-69
2023/07/30 08:40:25;;;;;;;34.95;8.57;;;;;;;;;;5009774;28;20029;-69
2023/07/30 08:42:52;;;;;;;20.85;5.90;;;;;;;;;;5009791;28;20048;-70
2023/07/30 08:45:18;;;;;;;22.00;6.00;;;;;;;;;;5011259;28;20041;-69
2023/07/30 08:47:45;;;;;;;18.02;5.40;;;;;;;;;;5029484;28;20034;-68
2023/07/30 08:50:11;;;;;;;25.50;5.15;;;;;;;;;;5029483;28;20036;-70
2023/07/30 08:52:37;;;;;;;22.30;5.47;;;;;;;;;;5029214;28;20083;-70
2023/07/30 08:55:04;;;;;;;16.38;4.55;;;;;;;;;;5028984;28;20037;-70
2023/07/30 08:57:30;;;;;;;24.05;4.88;;;;;;;;;;5027833;28;20022;-70
2023/07/30 09:00:10;;;;;;;17.98;4.18;;;;;;;;;;5028958;28;20034;-69
2023/07/30 09:02:39;;;;;;;22.90;4.50;;;;;;;;;;5028664;28;20065;-70
2023/07/30 09:05:06;;;;;;;23.63;4.53;;;;;;;;;;5028829;28;20026;-69
2023/07/30 09:07:32;;;;;;;19.52;3.42;;;;;;;;;;5029851;28;20219;-70
2023/07/30 09:09:59;;;;;;;21.90;4.20;;;;;;;;;;5032194;28;20037;-70
2023/07/30 09:12:34;;;;;;;11.63;2.42;;;;;;;;;;4998479;28;20064;-70
2023/07/30 09:15:02;;;;;;;8.55;2.45;;;;;;;;;;5032174;28;20056;-69
2023/07/30 09:17:29;;;;;;;14.27;2.60;;;;;;;;;;5031521;28;20060;-69
2023/07/30 09:19:55;;;;;;;15.88;2.55;;;;;;;;;;5032206;28;20033;-69
2023/07/30 09:22:27;;;;;;;10.70;2.30;;;;;;;;;;5032352;28;20207;-69
2023/07/30 09:24:58;;;;;;;17.10;3.38;;;;;;;;;;5032177;28;20502;-69
2023/07/30 09:27:26;;;;;;;16.95;2.28;;;;;;;;;;5031646;28;20037;-70
2023/07/30 09:29:56;;;;;;;13.07;2.65;;;;;;;;;;5032157;28;20407;-73
2023/07/30 09:32:32;;;;;;;13.65;2.97;;;;;;;;;;5030642;28;20068;-70
2023/07/30 09:35:09;;;;;;;17.60;2.75;;;;;;;;;;5032017;28;20033;-71
2023/07/30 09:37:41;;;;;;;13.55;2.35;;;;;;;;;;5032020;28;20121;-70
2023/07/30 09:40:14;;;;;;;11.38;2.42;;;;;;;;;;5031825;28;20039;-71
2023/07/30 09:42:44;;;;;;;13.93;2.22;;;;;;;;;;5032793;28;20739;-71
2023/07/30 09:45:18;;;;;;;13.45;2.90;;;;;;;;;;5032237;28;20450;-70
2023/07/30 09:47:48;;;;;;;11.52;3.10;;;;;;;;;;5014018;28;20029;-69
2023/07/30 09:50:15;;;;;;;14.57;2.50;;;;;;;;;;5031867;28;20453;-69
2023/07/30 09:52:41;;;;;;;13.20;2.60;;;;;;;;;;5012337;28;20034;-70
2023/07/30 09:55:08;;;;;;;13.57;2.60;;;;;;;;;;5011971;28;20450;-69
2023/07/30 09:57:34;;;;;;;17.13;3.38;;;;;;;;;;5012175;28;20045;-69
2023/07/30 10:00:00;;;;;;;16.63;3.13;;;;;;;;;;5011961;28;20121;-70
2023/07/30 10:02:31;;;;;;;12.00;2.55;;;;;;;;;;5012099;28;20026;-69
2023/07/30 10:04:57;;;;;;;10.45;2.42;;;;;;;;;;5011905;28;20034;-70
2023/07/30 10:07:24;;;;;;;9.00;2.45;;;;;;;;;;5011207;28;20018;-70
2023/07/30 10:09:53;;;;;;;11.98;2.50;;;;;;;;;;5011142;28;20061;-70
2023/07/30 10:12:22;;;;;;;14.32;3.58;;;;;;;;;;5011289;28;20113;-70
2023/07/30 10:14:48;;;;;;;13.88;2.15;;;;;;;;;;5011410;28;20030;-71
2023/07/30 10:17:14;;;;;;;12.30;2.55;;;;;;;;;;4993812;28;20114;-70
2023/07/30 10:19:40;;;;;;;15.23;2.20;;;;;;;;;;4993107;28;20056;-70
2023/07/30 10:22:12;;;;;;;13.35;2.50;;;;;;;;;;5002871;28;20125;-73
2023/07/30 10:24:39;;;;;;;9.98;2.17;;;;;;;;;;5031111;28;20025;-70
2023/07/30 10:27:06;;;;;;;10.18;2.50;;;;;;;;;;5030412;28;20700;-70
2023/07/30 10:29:35;;;;;;;11.70;2.00;;;;;;;;;;5030693;28;20072;-70
2023/07/30 10:32:02;;;;;;;16.30;3.17;;;;;;;;;;5030670;28;20087;-69
2023/07/30 10:34:45;;;;;;;11.95;2.35;;;;;;;;;;5030810;28;20116;-70
2023/07/30 10:37:17;;;;;;;11.43;2.08;;;;;;;;;;5030854;28;20567;-70
2023/07/30 10:39:44;;;;;;;13.18;2.28;;;;;;;;;;5030949;28;20029;-70
2023/07/30 10:42:10;;;;;;;11.98;2.10;;;;;;;;;;5030899;28;20136;-69
2023/07/30 10:44:36;;;;;;;7.97;1.80;;;;;;;;;;5030994;28;20052;-70
2023/07/30 10:47:03;;;;;;;11.77;2.20;;;;;;;;;;5021205;28;20034;-69
2023/07/30 10:49:30;;;;;;;12.43;2.10;;;;;;;;;;4994179;28;20050;-70
2023/07/30 10:51:59;;;;;;;10.27;2.17;;;;;;;;;;5031056;28;20081;-69
2023/07/30 10:54:25;;;;;;;7.70;1.63;;;;;;;;;;5031212;28;20041;-70
2023/07/30 10:56:52;;;;;;;8.57;2.10;;;;;;;;;;5030828;28;20132;-69
2023/07/30 10:59:18;;;;;;;8.50;2.00;;;;;;;;;;5029707;28;20149;-69
2023/07/30 11:01:45;;;;;;;11.30;2.10;;;;;;;;;;5030744;28;20021;-70
2023/07/30 11:04:11;;;;;;;9.07;2.30;;;;;;;;;;5030717;28;20029;-70
2023/07/30 11:06:38;;;;;;;10.30;2.08;;;;;;;;;;5030575;28;20508;-69
2023/07/30 11:09:05;;;;;;;12.15;2.55;;;;;;;;;;5030573;28;20029;-70
2023/07/30 11:11:31;;;;;;;11.98;2.05;;;;;;;;;;5030846;28;20029;-68
2023/07/30 11:13:59;;;;;;;11.25;2.55;;;;;;;;;;5031391;28;20548;-70
2023/07/30 11:16:26;;;;;;;10.45;1.98;;;;;;;;;;5030915;28;20083;-70
2023/07/30 11:18:52;;;;;;;9.05;2.05;;;;;;;;;;5030782;28;20082;-70
2023/07/30 11:21:19;;;;;;;13.77;2.10;;;;;;;;;;5030193;28;20034;-70
2023/07/30 11:23:45;;;;;;;9.55;2.00;;;;;;;;;;5029708;28;20124;-69
2023/07/30 11:26:16;;;;;;;9.77;2.10;;;;;;;;;;5029931;28;20099;-70
2023/07/30 11:28:43;;;;;;;13.35;2.70;;;;;;;;;;5029613;28;20084;-69
2023/07/30 11:31:10;;;;;;;11.10;1.92;;;;;;;;;;5029693;28;20455;-69
2023/07/30 11:33:37;;;;;;;16.23;2.38;;;;;;;;;;5030030;28;20168;-69
2023/07/30 11:36:03;;;;;;;9.73;1.83;;;;;;;;;;5030208;28;20037;-69
2023/07/30 11:38:30;;;;;;;11.60;2.13;;;;;;;;;;5029897;28;20100;-69
2023/07/30 11:40:57;;;;;;;10.60;1.90;;;;;;;;;;5029696;28;20113;-69
2023/07/30 11:43:23;;;;;;;11.25;1.98;;;;;;;;;;5029488;28;20487;-68
2023/07/30 11:46:06;;;;;;;10.18;2.00;;;;;;;;;;5029617;28;20064;-70
2023/07/30 11:48:32;;;;;;;12.02;1.75;;;;;;;;;;5029337;28;20049;-70
2023/07/30 11:50:58;;;;;;;8.38;2.03;;;;;;;;;;5029756;28;20396;-69
2023/07/30 11:53:44;;;;;;;9.80;2.22;;;;;;;;;;5029524;28;20116;-69
2023/07/30 11:56:15;;;;;;;14.07;2.30;;;;;;;;;;5029781;28;20061;-70
2023/07/30 11:58:42;;;;;;;14.32;2.40;;;;;;;;;;5029377;28;20025;-69
2023/07/30 12:01:08;;;;;;;9.10;1.73;;;;;;;;;;5029498;28;20479;-70
2023/07/30 12:03:34;;;;;;;9.85;1.60;;;;;;;;;;5029472;28;20105;-70
2023/07/30 12:06:05;;;;;;;9.43;2.15;;;;;;;;;;5028239;28;20094;-69
2023/07/30 12:08:31;;;;;;;9.88;1.75;;;;;;;;;;5029536;28;20045;-71
2023/07/30 12:11:02;;;;;;;8.07;1.45;;;;;;;;;;5029818;28;20065;-71
2023/07/30 12:13:29;;;;;;;7.28;1.52;;;;;;;;;;5030000;28;20033;-70
2023/07/30 12:15:56;;;;;;;10.45;1.65;;;;;;;;;;5029655;28;20033;-70
2023/07/30 12:18:23;;;;;;;10.85;1.58;;;;;;;;;;5030216;28;20044;-71
2023/07/30 12:20:53;;;;;;;7.57;1.80;;;;;;;;;;5026800;28;20446;-70
2023/07/30 12:23:19;;;;;;;5.90;1.25;;;;;;;;;;5010321;28;20018;-70
2023/07/30 12:25:46;;;;;;;9.40;2.08;;;;;;;;;;5009445;28;20576;-70
2023/07/30 12:28:12;;;;;;;13.65;1.85;;;;;;;;;;5010084;28;20037;-70
2023/07/30 12:30:38;;;;;;;9.80;2.30;;;;;;;;;;5010533;28;20034;-70
2023/07/30 12:33:04;;;;;;;7.65;1.80;;;;;;;;;;5009935;28;20018;-71
2023/07/30 12:35:31;;;;;;;8.98;2.22;;;;;;;;;;5009406;28;20069;-71
2023/07/30 12:37:58;;;;;;;8.95;1.67;;;;;;;;;;5009428;28;20030;-70
2023/07/30 12:40:24;;;;;;;14.27;1.60;;;;;;;;;;5009240;28;20053;-70
2023/07/30 12:42:50;;;;;;;8.52;2.13;;;;;;;;;;5011143;28;20056;-69
2023/07/30 12:45:16;;;;;;;8.40;1.55;;;;;;;;;;5013152;28;20034;-69
2023/07/30 12:47:42;;;;;;;9.23;1.90;;;;;;;;;;5015332;28;20061;-71
2023/07/30 12:50:09;;;;;;;11.65;2.15;;;;;;;;;;5032867;28;20052;-69
2023/07/30 12:52:35;;;;;;;6.75;1.40;;;;;;;;;;5033086;28;20033;-69
2023/07/30 12:55:04;;;;;;;5.60;1.30;;;;;;;;;;5032383;28;20172;-69
2023/07/30 12:57:30;;;;;;;8.07;1.30;;;;;;;;;;5032444;28;20034;-70
2023/07/30 12:59:57;;;;;;;6.80;1.10;;;;;;;;;;5032864;28;20061;-70
2023/07/30 13:02:23;;;;;;;4.53;1.50;;;;;;;;;;5032382;28;20022;-69
2023/07/30 13:04:49;;;;;;;11.93;1.45;;;;;;;;;;5032500;28;20068;-70
2023/07/30 13:07:15;;;;;;;6.22;1.30;;;;;;;;;;5032303;28;20037;-68
2023/07/30 13:09:41;;;;;;;6.07;1.52;;;;;;;;;;5032313;28;20061;-69
2023/07/30 13:12:07;;;;;;;7.25;1.30;;;;;;;;;;5032379;28;20034;-70
2023/07/30 13:14:33;;;;;;;7.00;1.75;;;;;;;;;;5032247;28;20030;-69
2023/07/30 13:17:00;;;;;;;10.60;1.55;;;;;;;;;;5032197;28;20045;-70
2023/07/30 13:19:28;;;;;;;6.82;1.67;;;;;;;;;;5032045;28;20047;-70
2023/07/30 13:21:54;;;;;;;8.10;1.70;;;;;;;;;;5032840;28;20040;-69
2023/07/30 13:24:20;;;;;;;9.30;1.75;;;;;;;;;;5032887;28;20463;-69
2023/07/30 13:26:46;;;;;;;9.77;1.75;;;;;;;;;;5032777;28;20041;-70
2023/07/30 13:29:12;;;;;;;8.65;1.80;;;;;;;;;;5032162;28;20029;-69
2023/07/30 13:31:38;;;;;;;12.40;2.03;;;;;;;;;;5032632;28;20033;-70
2023/07/30 13:34:05;;;;;;;9.98;2.13;;;;;;;;;;5032843;28;20114;-69
2023/07/30 13:36:31;;;;;;;11.30;1.90;;;;;;;;;;5032738;28;20030;-70
2023/07/30 13:38:57;;;;;;;11.45;2.05;;;;;;;;;;5032163;28;20406;-70
2023/07/30 13:41:23;;;;;;;11.07;1.80;;;;;;;;;;5032690;28;20029;-70
2023/07/30 13:43:49;;;;;;;10.95;2.40;;;;;;;;;;5032526;28;20048;-70
2023/07/30 13:46:15;;;;;;;13.95;2.58;;;;;;;;;;5031009;28;20392;-69
2023/07/30 13:48:42;;;;;;;12.60;2.03;;;;;;;;;;5010471;28;20061;-68
2023/07/30 13:51:08;;;;;;;10.82;1.98;;;;;;;;;;5012824;28;20046;-69
2023/07/30 13:53:38;;;;;;;12.65;2.28;;;;;;;;;;5012118;28;20064;-68
2023/07/30 13:56:04;;;;;;;10.52;1.92;;;;;;;;;;5011955;28;20042;-69
2023/07/30 13:58:30;;;;;;;9.20;1.98;;;;;;;;;;5011234;28;20439;-69
2023/07/30 14:00:56;;;;;;;8.82;1.83;;;;;;;;;;5011405;28;20146;-70
2023/07/30 14:03:22;;;;;;;7.32;1.88;;;;;;;;;;5011612;28;20085;-70
2023/07/30 14:05:49;;;;;;;11.65;2.15;;;;;;;;;;5011548;28;20396;-70
2023/07/30 14:08:15;;;;;;;21.33;3.15;;;;;;;;;;5009926;28;20666;-69
2023/07/30 14:10:41;;;;;;;10.40;2.47;;;;;;;;;;5011313;28;20056;-70
2023/07/30 14:13:07;;;;;;;13.73;2.50;;;;;;;;;;5011233;28;20034;-69
2023/07/30 14:15:33;;;;;;;10.80;2.30;;;;;;;;;;5009858;28;20046;-69
2023/07/30 14:17:59;;;;;;;11.00;2.50;;;;;;;;;;5009694;28;20501;-70
2023/07/30 14:20:26;;;;;;;12.98;2.70;;;;;;;;;;5011395;28;20022;-70
2023/07/30 14:22:54;;;;;;;15.30;2.63;;;;;;;;;;5005030;28;20084;-70
2023/07/30 14:25:20;;;;;;;16.15;2.53;;;;;;;;;;5007679;28;20030;-70